createdAt,value
2022-09-25T00:00:14.346Z,100936.84
2022-09-25T00:02:59.748Z,100909.31
2022-09-25T00:05:45.977Z,100938.56
2022-09-25T00:08:31.724Z,100929.78
2022-09-25T00:11:25.405Z,100938.09
2022-09-25T00:14:10.611Z,100934.16
2022-09-25T00:16:56.124Z,100937.81
2022-09-25T00:19:50.170Z,100929.09
2022-09-25T00:22:35.761Z,100929.66
2022-09-25T00:25:21.330Z,100924.63
2022-09-25T00:28:07.112Z,100921.31
2022-09-25T00:30:52.743Z,100921.03
2022-09-25T00:33:38.386Z,100926.13
2022-09-25T00:36:23.968Z,100907.75
2022-09-25T00:39:09.773Z,100905.91
2022-09-25T00:41:55.329Z,100911.13
2022-09-25T00:44:52.092Z,100914.88
2022-09-25T00:47:51.281Z,100907.75
2022-09-25T00:50:44.952Z,100907.03
2022-09-25T00:53:34.708Z,100904.81
2022-09-25T00:56:20.341Z,100910.19
2022-09-25T00:59:10.325Z,100904.94
2022-09-25T01:01:56.757Z,100905.91
2022-09-25T01:04:46.080Z,100918.09
2022-09-25T01:07:39.250Z,100911.94
2022-09-25T01:10:24.788Z,100918.69
2022-09-25T01:13:11.345Z,100915.72
2022-09-25T01:16:04.148Z,100915.34
2022-09-25T01:19:22.312Z,100912.06
2022-09-25T01:22:26.868Z,100923.97
2022-09-25T01:25:26.135Z,100919.25
2022-09-25T01:28:24.143Z,100917.47
2022-09-25T01:31:18.244Z,100909.06
2022-09-25T01:34:56.511Z,100915.84
2022-09-25T01:37:52.536Z,100913.88
2022-09-25T01:40:59.279Z,100908.97
2022-09-25T01:43:58.426Z,100914.34
2022-09-25T01:46:51.543Z,100917.19
2022-09-25T01:49:44.509Z,100919.66
2022-09-25T01:52:43.036Z,100916.59
2022-09-25T01:55:41.021Z,100914.63
2022-09-25T01:58:34.550Z,100906.25
2022-09-25T02:01:25.844Z,100909.47
2022-09-25T02:04:24.983Z,100902.50
2022-09-25T02:07:16.960Z,100903.16
2022-09-25T02:10:08.311Z,100878.81
2022-09-25T02:12:58.568Z,100902.50
2022-09-25T02:15:49.976Z,100904.03
2022-09-25T02:18:55.029Z,100908.44
2022-09-25T02:21:54.960Z,100911.34
2022-09-25T02:24:58.906Z,100905.16
2022-09-25T02:27:45.775Z,100902.63
2022-09-25T02:30:31.626Z,100911.34
2022-09-25T02:33:17.297Z,100911.75
2022-09-25T02:36:04.834Z,100909.50
2022-09-25T02:38:53.292Z,100896.34
2022-09-25T02:41:54.432Z,100899.81
2022-09-25T02:45:23.586Z,100898.13
2022-09-25T02:48:28.607Z,100903.78
2022-09-25T02:51:28.356Z,100898.41
2022-09-25T02:54:31.483Z,100901.34
2022-09-25T02:57:29.328Z,100892.84
2022-09-25T03:00:15.105Z,100905.66
2022-09-25T03:03:03.878Z,100899.09
2022-09-25T03:05:52.346Z,100894.00
2022-09-25T03:08:43.583Z,100893.59
2022-09-25T03:11:28.955Z,100892.88
2022-09-25T03:14:14.285Z,100887.81
2022-09-25T03:17:04.780Z,100874.00
2022-09-25T03:19:50.342Z,100891.63
2022-09-25T03:22:37.506Z,100890.25
2022-09-25T03:25:22.824Z,100885.63
2022-09-25T03:28:12.118Z,100883.69
2022-09-25T03:31:07.981Z,100878.66
2022-09-25T03:33:53.404Z,100875.00
2022-09-25T03:36:39.253Z,100889.72
2022-09-25T03:39:24.530Z,100885.63
2022-09-25T03:42:10.239Z,100888.72
2022-09-25T03:44:55.711Z,100882.34
2022-09-25T03:47:41.238Z,100884.13
2022-09-25T03:50:27.628Z,100882.06
2022-09-25T03:53:13.194Z,100882.22
2022-09-25T03:55:58.621Z,100884.31
2022-09-25T03:58:44.437Z,100886.47
2022-09-25T04:01:29.948Z,100888.25
2022-09-25T04:04:15.308Z,100879.19
2022-09-25T04:07:00.918Z,100867.72
2022-09-25T04:09:46.294Z,100874.72
2022-09-25T04:12:31.797Z,100880.34
2022-09-25T04:15:17.872Z,100880.28
2022-09-25T04:18:06.159Z,100861.44
2022-09-25T04:20:51.927Z,100879.16
2022-09-25T04:23:38.189Z,100877.66
2022-09-25T04:26:23.738Z,100872.28
2022-09-25T04:29:09.188Z,100880.34
2022-09-25T04:32:13.532Z,100888.38
2022-09-25T04:34:59.321Z,100874.28
2022-09-25T04:37:44.655Z,100881.41
2022-09-25T04:40:30.974Z,100890.63
2022-09-25T04:43:16.468Z,100873.59
2022-09-25T04:46:07.903Z,100873.88
2022-09-25T04:48:53.491Z,100881.81
2022-09-25T04:51:39.264Z,100876.13
2022-09-25T04:54:24.629Z,100882.59
2022-09-25T04:57:11.287Z,100886.19
2022-09-25T04:59:57.406Z,100876.97
2022-09-25T05:02:43.088Z,100876.94
2022-09-25T05:05:30.467Z,100885.53
2022-09-25T05:08:16.228Z,100879.28
2022-09-25T05:11:01.725Z,100889.22
2022-09-25T05:13:51.293Z,100884.47
2022-09-25T05:16:36.930Z,100873.09
2022-09-25T05:19:22.156Z,100884.81
2022-09-25T05:22:07.879Z,100885.88
2022-09-25T05:24:58.662Z,100876.66
2022-09-25T05:27:44.375Z,100887.94
2022-09-25T05:30:32.080Z,100888.69
2022-09-25T05:33:18.948Z,100890.00
2022-09-25T05:36:06.231Z,100892.84
2022-09-25T05:38:51.911Z,100880.66
2022-09-25T05:41:37.724Z,100879.81
2022-09-25T05:44:24.882Z,100891.38
2022-09-25T05:47:10.496Z,100868.78
2022-09-25T05:49:56.498Z,100881.59
2022-09-25T05:52:41.830Z,100877.06
2022-09-25T05:55:27.965Z,100872.75
2022-09-25T05:58:13.530Z,100888.31
2022-09-25T06:01:06.035Z,100881.94
2022-09-25T06:03:51.364Z,100872.75
2022-09-25T06:06:36.653Z,100887.97
2022-09-25T06:09:22.140Z,100865.56
2022-09-25T06:12:07.851Z,100871.28
2022-09-25T06:14:53.457Z,100882.50
2022-09-25T06:17:39.144Z,100876.44
2022-09-25T06:20:25.154Z,100868.41
2022-09-25T06:23:10.918Z,100868.63
2022-09-25T06:26:04.339Z,100874.25
2022-09-25T06:28:50.022Z,100870.59
2022-09-25T06:31:35.402Z,100874.97
2022-09-25T06:34:21.075Z,100869.03
2022-09-25T06:37:06.727Z,100875.63
2022-09-25T06:39:52.355Z,100865.47
2022-09-25T06:42:38.394Z,100856.97
2022-09-25T06:45:24.595Z,100869.97
2022-09-25T06:48:13.127Z,100875.44
2022-09-25T06:50:59.685Z,100869.03
2022-09-25T06:53:45.621Z,100873.94
2022-09-25T06:56:30.902Z,100877.63
2022-09-25T06:59:16.886Z,100870.63
2022-09-25T07:02:22.542Z,100879.31
2022-09-25T07:05:09.120Z,100874.50
2022-09-25T07:07:55.765Z,100884.09
2022-09-25T07:10:47.363Z,100864.44
2022-09-25T07:13:35.936Z,100882.22
2022-09-25T07:16:24.135Z,100885.25
2022-09-25T07:19:09.567Z,100885.06
2022-09-25T07:21:55.336Z,100888.06
2022-09-25T07:24:40.367Z,100884.69
2022-09-25T07:27:25.940Z,100875.69
2022-09-25T07:30:11.370Z,100871.47
2022-09-25T07:33:00.097Z,100883.53
2022-09-25T07:35:46.095Z,100887.50
2022-09-25T07:38:31.726Z,100885.44
2022-09-25T07:41:18.865Z,100890.72
2022-09-25T07:44:28.030Z,100882.88
2022-09-25T07:47:13.462Z,100883.34
2022-09-25T07:49:59.278Z,100876.28
2022-09-25T07:52:44.790Z,100887.13
2022-09-25T07:55:30.426Z,100889.69
2022-09-25T07:58:15.998Z,100881.94
2022-09-25T08:01:04.576Z,100895.78
2022-09-25T08:03:49.926Z,100893.91
2022-09-25T08:06:35.531Z,100891.72
2022-09-25T08:09:21.106Z,100892.75
2022-09-25T08:12:09.980Z,100886.16
2022-09-25T08:14:55.224Z,100889.22
2022-09-25T08:17:41.577Z,100898.91
2022-09-25T08:20:27.213Z,100901.81
2022-09-25T08:23:12.765Z,100896.06
2022-09-25T08:25:59.163Z,100894.66
2022-09-25T08:28:44.624Z,100895.00
2022-09-25T08:31:30.029Z,100892.47
2022-09-25T08:34:39.530Z,100902.47
2022-09-25T08:37:21.730Z,100904.28
2022-09-25T08:40:17.725Z,100887.88
2022-09-25T08:43:04.610Z,100892.88
2022-09-25T08:46:10.175Z,100901.66
2022-09-25T08:49:05.841Z,100902.78
2022-09-25T08:51:53.835Z,100900.91
2022-09-25T08:54:42.087Z,100901.66
2022-09-25T08:57:34.876Z,100912.22
2022-09-25T09:00:22.904Z,100896.75
2022-09-25T09:03:10.677Z,100890.31
2022-09-25T09:06:05.700Z,100900.13
2022-09-25T09:08:58.305Z,100897.47
2022-09-25T09:11:58.617Z,100907.28
2022-09-25T09:14:48.016Z,100898.69
2022-09-25T09:17:41.285Z,100902.47
2022-09-25T09:20:42.987Z,100903.44
2022-09-25T09:23:58.813Z,100889.09
2022-09-25T09:27:14.529Z,100900.47
2022-09-25T09:30:20.824Z,100892.47
2022-09-25T09:33:35.642Z,100879.22
2022-09-25T09:36:39.735Z,100904.47
2022-09-25T09:39:25.273Z,100901.28
2022-09-25T09:42:17.470Z,100902.97
2022-09-25T09:45:31.531Z,100898.72
2022-09-25T09:48:36.641Z,100900.63
2022-09-25T09:51:27.930Z,100913.63
2022-09-25T09:54:21.205Z,100902.78
2022-09-25T09:57:35.027Z,100905.00
2022-09-25T10:00:22.946Z,100907.75
2022-09-25T10:03:23.558Z,100904.94
2022-09-25T10:06:16.229Z,100904.56
2022-09-25T10:09:04.505Z,100897.69
2022-09-25T10:12:01.786Z,100903.66
2022-09-25T10:14:48.183Z,100895.94
2022-09-25T10:17:36.030Z,100893.56
2022-09-25T10:20:23.683Z,100877.28
2022-09-25T10:23:38.846Z,100894.03
2022-09-25T10:26:38.479Z,100881.53
2022-09-25T10:29:27.640Z,100900.28
2022-09-25T10:32:13.313Z,100893.91
2022-09-25T10:34:59.504Z,100901.13
2022-09-25T10:37:50.865Z,100894.84
2022-09-25T10:40:38.534Z,100891.81
2022-09-25T10:43:24.219Z,100880.31
2022-09-25T10:46:14.064Z,100896.31
2022-09-25T10:49:32.896Z,100886.09
2022-09-25T10:52:22.136Z,100884.44
2022-09-25T10:55:25.340Z,100893.56
2022-09-25T10:58:10.568Z,100890.19
2022-09-25T11:00:59.305Z,100896.97
2022-09-25T11:04:10.572Z,100890.63
2022-09-25T11:07:00.346Z,100894.19
2022-09-25T11:09:45.740Z,100899.50
2022-09-25T11:12:32.449Z,100894.03
2022-09-25T11:15:23.575Z,100894.03
2022-09-25T11:18:41.251Z,100896.38
2022-09-25T11:21:36.054Z,100880.03
2022-09-25T11:24:29.856Z,100871.22
2022-09-25T11:27:43.703Z,100876.31
2022-09-25T11:30:39.405Z,100882.94
2022-09-25T11:33:43.356Z,100882.25
2022-09-25T11:36:56.848Z,100866.38
2022-09-25T11:40:08.359Z,100867.44
2022-09-25T11:43:04.423Z,100879.38
2022-09-25T11:46:07.498Z,100876.97
2022-09-25T11:49:19.047Z,100874.63
2022-09-25T11:52:20.177Z,100864.34
2022-09-25T11:55:42.832Z,100871.25
2022-09-25T11:58:45.840Z,100862.31
2022-09-25T12:01:37.706Z,100851.28
2022-09-25T12:04:46.516Z,100846.03
2022-09-25T12:07:56.594Z,100860.53
2022-09-25T12:11:01.612Z,100852.16
2022-09-25T12:14:13.972Z,100869.41
2022-09-25T12:17:23.892Z,100870.72
2022-09-25T12:20:23.567Z,100856.72
2022-09-25T12:23:23.522Z,100849.56
2022-09-25T12:26:21.745Z,100870.31
2022-09-25T12:29:46.258Z,100862.56
2022-09-25T12:32:58.642Z,100868.81
2022-09-25T12:35:52.635Z,100851.53
2022-09-25T12:38:59.910Z,100860.72
2022-09-25T12:41:51.914Z,100850.25
2022-09-25T12:44:54.839Z,100849.91
2022-09-25T12:47:50.892Z,100852.44
2022-09-25T12:50:43.800Z,100841.06
2022-09-25T12:53:43.100Z,100837.28
2022-09-25T12:56:45.415Z,100829.84
2022-09-25T12:59:52.861Z,100845.88
2022-09-25T13:02:47.945Z,100849.69
2022-09-25T13:05:37.832Z,100835.16
2022-09-25T13:08:33.730Z,100835.78
2022-09-25T13:11:38.964Z,100843.69
2022-09-25T13:14:39.815Z,100851.03
2022-09-25T13:17:25.407Z,100856.38
2022-09-25T13:20:29.513Z,100854.97
2022-09-25T13:23:27.238Z,100850.63
2022-09-25T13:26:24.318Z,100852.63
2022-09-25T13:29:35.334Z,100847.34
2022-09-25T13:32:23.362Z,100860.72
2022-09-25T13:35:20.465Z,100842.84
2022-09-25T13:38:37.704Z,100850.53
2022-09-25T13:41:23.544Z,100843.56
2022-09-25T13:44:57.052Z,100848.25
2022-09-25T13:48:06.053Z,100841.94
2022-09-25T13:51:18.658Z,100841.19
2022-09-25T13:54:25.655Z,100840.47
2022-09-25T13:57:13.072Z,100834.59
2022-09-25T14:00:03.633Z,100835.91
2022-09-25T14:02:50.428Z,100817.72
2022-09-25T14:05:37.168Z,100807.91
2022-09-25T14:08:23.661Z,100822.28
2022-09-25T14:11:14.497Z,100834.50
2022-09-25T14:14:04.649Z,100839.03
2022-09-25T14:16:51.943Z,100831.09
2022-09-25T14:19:41.311Z,100824.81
2022-09-25T14:22:36.192Z,100834.38
2022-09-25T14:25:33.825Z,100835.50
2022-09-25T14:28:27.713Z,100830.66
2022-09-25T14:31:34.943Z,100820.41
2022-09-25T14:34:43.396Z,100813.56
2022-09-25T14:38:07.359Z,100816.53
2022-09-25T14:41:22.465Z,100801.34
2022-09-25T14:44:41.758Z,100800.16
2022-09-25T14:47:44.430Z,100789.63
2022-09-25T14:50:35.820Z,100799.44
2022-09-25T14:53:39.915Z,100793.75
2022-09-25T14:56:26.358Z,100790.53
2022-09-25T14:59:16.556Z,100798.91
2022-09-25T15:02:03.491Z,100790.59
2022-09-25T15:04:49.295Z,100797.19
2022-09-25T15:07:42.573Z,100787.25
2022-09-25T15:10:38.651Z,100797.09
2022-09-25T15:13:24.270Z,100778.38
2022-09-25T15:16:47.461Z,100786.97
2022-09-25T15:19:38.738Z,100794.72
2022-09-25T15:22:28.297Z,100785.91
2022-09-25T15:25:27.233Z,100787.53
2022-09-25T15:28:16.299Z,100779.19
2022-09-25T15:31:04.287Z,100773.34
2022-09-25T15:34:10.974Z,100768.16
2022-09-25T15:37:17.115Z,100774.88
2022-09-25T15:40:27.865Z,100772.06
2022-09-25T15:43:16.280Z,100771.84
2022-09-25T15:46:08.002Z,100763.84
2022-09-25T15:48:58.637Z,100767.31
2022-09-25T15:51:52.702Z,100771.53
2022-09-25T15:54:44.530Z,100754.28
2022-09-25T15:57:32.044Z,100746.47
2022-09-25T16:00:40.007Z,100753.56
2022-09-25T16:03:49.497Z,100745.91
2022-09-25T16:06:40.359Z,100760.00
2022-09-25T16:09:47.067Z,100750.22
2022-09-25T16:12:47.651Z,100753.53
2022-09-25T16:15:44.509Z,100737.47
2022-09-25T16:18:39.586Z,100745.81
2022-09-25T16:21:29.835Z,100760.13
2022-09-25T16:24:21.166Z,100760.00
2022-09-25T16:27:07.427Z,100764.22
2022-09-25T16:29:55.633Z,100754.16
2022-09-25T16:32:49.110Z,100749.44
2022-09-25T16:36:05.351Z,100760.03
2022-09-25T16:39:04.004Z,100752.31
2022-09-25T16:41:50.412Z,100766.59
2022-09-25T16:44:40.163Z,100761.66
2022-09-25T16:47:28.861Z,100772.19
2022-09-25T16:50:14.861Z,100769.22
2022-09-25T16:53:03.509Z,100762.78
2022-09-25T16:55:51.018Z,100761.69
2022-09-25T16:58:37.446Z,100761.19
2022-09-25T17:01:26.016Z,100754.81
2022-09-25T17:04:14.045Z,100744.50
2022-09-25T17:06:59.695Z,100758.56
2022-09-25T17:09:45.407Z,100768.22
2022-09-25T17:12:31.447Z,100753.19
2022-09-25T17:15:27.450Z,100745.47
2022-09-25T17:18:21.281Z,100754.78
2022-09-25T17:21:15.301Z,100739.34
2022-09-25T17:24:01.120Z,100748.00
2022-09-25T17:26:47.368Z,100747.66
2022-09-25T17:29:32.787Z,100726.41
2022-09-25T17:32:18.180Z,100755.22
2022-09-25T17:35:14.766Z,100752.06
2022-09-25T17:38:01.456Z,100743.69
2022-09-25T17:40:48.612Z,100751.84
2022-09-25T17:43:34.284Z,100740.81
2022-09-25T17:46:20.304Z,100742.50
2022-09-25T17:49:06.038Z,100752.53
2022-09-25T17:51:52.496Z,100731.91
2022-09-25T17:54:38.045Z,100740.47
2022-09-25T17:57:23.342Z,100742.34
2022-09-25T18:00:10.087Z,100755.97
2022-09-25T18:02:55.715Z,100753.78
2022-09-25T18:05:42.751Z,100753.69
2022-09-25T18:08:28.474Z,100741.19
2022-09-25T18:11:15.386Z,100752.47
2022-09-25T18:14:02.002Z,100743.28
2022-09-25T18:16:47.372Z,100746.06
2022-09-25T18:19:51.440Z,100748.75
2022-09-25T18:22:38.097Z,100758.47
2022-09-25T18:25:24.213Z,100750.41
2022-09-25T18:28:09.572Z,100747.75
2022-09-25T18:30:56.747Z,100753.28
2022-09-25T18:33:47.156Z,100756.22
2022-09-25T18:36:32.933Z,100749.41
2022-09-25T18:39:20.502Z,100756.50
2022-09-25T18:42:06.156Z,100742.22
2022-09-25T18:44:51.482Z,100747.16
2022-09-25T18:47:36.827Z,100743.00
2022-09-25T18:50:22.738Z,100733.97
2022-09-25T18:53:08.071Z,100734.13
2022-09-25T18:55:59.388Z,100727.25
2022-09-25T18:58:44.878Z,100737.09
2022-09-25T19:01:30.397Z,100718.13
2022-09-25T19:04:16.897Z,100729.94
2022-09-25T19:07:02.701Z,100717.63
2022-09-25T19:09:48.502Z,100717.34
2022-09-25T19:12:34.076Z,100729.66
2022-09-25T19:15:19.357Z,100716.94
2022-09-25T19:18:06.602Z,100715.50
2022-09-25T19:20:55.743Z,100717.78
2022-09-25T19:23:47.662Z,100725.44
2022-09-25T19:26:33.304Z,100708.69
2022-09-25T19:29:18.884Z,100719.91
2022-09-25T19:32:05.822Z,100722.63
2022-09-25T19:34:51.853Z,100717.53
2022-09-25T19:37:38.168Z,100720.00
2022-09-25T19:40:39.527Z,100727.25
2022-09-25T19:43:25.251Z,100717.91
2022-09-25T19:46:17.073Z,100696.78
2022-09-25T19:49:02.550Z,100719.94
2022-09-25T19:51:47.922Z,100707.91
2022-09-25T19:54:34.079Z,100709.16
2022-09-25T19:57:19.769Z,100698.56
2022-09-25T20:00:06.011Z,100713.28
2022-09-25T20:02:51.546Z,100702.44
2022-09-25T20:05:41.575Z,100710.16
2022-09-25T20:08:27.092Z,100684.44
2022-09-25T20:11:20.008Z,100702.44
2022-09-25T20:14:06.238Z,100675.31
2022-09-25T20:16:53.565Z,100704.41
2022-09-25T20:19:39.086Z,100691.53
2022-09-25T20:22:24.745Z,100697.03
2022-09-25T20:25:11.008Z,100680.53
2022-09-25T20:27:56.219Z,100676.63
2022-09-25T20:30:41.697Z,100691.22
2022-09-25T20:33:33.902Z,100687.72
2022-09-25T20:36:20.845Z,100688.78
2022-09-25T20:39:07.273Z,100695.28
2022-09-25T20:41:52.820Z,100690.06
2022-09-25T20:44:38.429Z,100679.00
2022-09-25T20:47:24.132Z,100675.00
2022-09-25T20:50:10.117Z,100696.47
2022-09-25T20:52:56.621Z,100683.72
2022-09-25T20:55:42.382Z,100685.47
2022-09-25T20:58:28.953Z,100696.72
2022-09-25T21:01:17.108Z,100698.38
2022-09-25T21:04:04.925Z,100685.81
2022-09-25T21:06:50.396Z,100683.63
2022-09-25T21:09:35.877Z,100701.31
2022-09-25T21:12:21.562Z,100695.63
2022-09-25T21:15:07.265Z,100678.56
2022-09-25T21:17:54.132Z,100672.13
2022-09-25T21:20:40.417Z,100676.66
2022-09-25T21:23:25.849Z,100662.25
2022-09-25T21:26:13.777Z,100670.84
2022-09-25T21:29:04.305Z,100665.63
2022-09-25T21:31:50.952Z,100660.03
2022-09-25T21:34:37.003Z,100650.22
2022-09-25T21:37:22.293Z,100666.25
2022-09-25T21:40:08.567Z,100663.78
2022-09-25T21:42:54.801Z,100652.78
2022-09-25T21:45:40.123Z,100640.88
2022-09-25T21:48:26.827Z,100643.75
2022-09-25T21:51:13.442Z,100656.84
2022-09-25T21:54:00.911Z,100639.56
2022-09-25T21:56:48.581Z,100654.94
2022-09-25T21:59:33.917Z,100636.16
2022-09-25T22:02:19.727Z,100644.53
2022-09-25T22:05:05.363Z,100648.22
2022-09-25T22:07:50.689Z,100625.72
2022-09-25T22:10:36.014Z,100639.50
2022-09-25T22:13:21.600Z,100635.47
2022-09-25T22:16:12.861Z,100629.31
2022-09-25T22:19:02.914Z,100640.69
2022-09-25T22:21:50.056Z,100631.13
2022-09-25T22:24:36.125Z,100618.53
2022-09-25T22:27:21.869Z,100628.25
2022-09-25T22:30:07.665Z,100639.81
2022-09-25T22:32:53.060Z,100634.84
2022-09-25T22:35:38.893Z,100636.16
2022-09-25T22:38:24.180Z,100613.56
2022-09-25T22:41:12.577Z,100635.31
2022-09-25T22:44:00.678Z,100609.91
2022-09-25T22:46:47.146Z,100625.66
2022-09-25T22:49:32.685Z,100629.03
2022-09-25T22:52:18.455Z,100606.63
2022-09-25T22:55:03.928Z,100607.50
2022-09-25T22:57:50.060Z,100589.09
2022-09-25T23:00:35.752Z,100594.94
2022-09-25T23:03:23.389Z,100594.16
2022-09-25T23:06:10.509Z,100599.38
2022-09-25T23:08:58.181Z,100594.47
2022-09-25T23:11:44.331Z,100598.19
2022-09-25T23:14:31.431Z,100589.94
2022-09-25T23:17:17.029Z,100570.28
2022-09-25T23:20:02.781Z,100573.94
2022-09-25T23:22:48.505Z,100579.88
2022-09-25T23:25:34.432Z,100585.56
2022-09-25T23:28:20.174Z,100572.38
2022-09-25T23:31:16.401Z,100573.63
2022-09-25T23:34:02.236Z,100553.75
2022-09-25T23:36:47.794Z,100569.97
2022-09-25T23:39:33.549Z,100564.59
2022-09-25T23:42:19.210Z,100542.91
2022-09-25T23:45:04.912Z,100558.41
2022-09-25T23:47:50.229Z,100554.88
2022-09-25T23:50:35.869Z,100548.06
2022-09-25T23:53:21.451Z,100540.47
2022-09-25T23:56:08.988Z,100532.16
2022-09-25T23:58:56.789Z,100529.41
